METAR Data
IDs: Format: Raw Decoded Include TAF

Data at: 2153 UTC 02 Aug 2021

ETEB 022056Z AUTO 22005KT 9999 CLR 12/10 A3001 RMK AO2 SLP171 60000 T01220104 50006 $